createdAt,value
2023-02-21T00:00:43.373Z,1007.61
2023-02-21T00:01:43.306Z,1007.59
2023-02-21T00:02:43.275Z,1007.58
2023-02-21T00:03:43.185Z,1007.52
2023-02-21T00:04:43.101Z,1007.48
2023-02-21T00:05:43.244Z,1007.55
2023-02-21T00:06:42.973Z,1007.51
2023-02-21T00:07:42.908Z,1007.45
2023-02-21T00:08:42.844Z,1007.54
2023-02-21T00:09:42.784Z,1007.61
2023-02-21T00:10:42.704Z,1007.59
2023-02-21T00:11:42.643Z,1007.50
2023-02-21T00:12:42.578Z,1007.43
2023-02-21T00:13:42.512Z,1007.50
2023-02-21T00:14:42.444Z,1007.53
2023-02-21T00:15:42.378Z,1007.40
2023-02-21T00:16:42.344Z,1007.47
2023-02-21T00:17:42.250Z,1007.54
2023-02-21T00:18:42.177Z,1007.52
2023-02-21T00:19:42.110Z,1007.43
2023-02-21T00:20:42.049Z,1007.44
2023-02-21T00:21:41.980Z,1007.51
2023-02-21T00:22:41.909Z,1007.38
2023-02-21T00:23:41.845Z,1007.46
2023-02-21T00:24:41.787Z,1007.40
2023-02-21T00:25:41.710Z,1007.53
2023-02-21T00:26:41.638Z,1007.45
2023-02-21T00:27:41.575Z,1007.42
2023-02-21T00:28:41.507Z,1007.43
2023-02-21T00:29:41.442Z,1007.49
2023-02-21T00:30:41.481Z,1007.46
2023-02-21T00:31:41.306Z,1007.46
2023-02-21T00:32:41.357Z,1007.35
2023-02-21T00:33:41.172Z,1007.37
2023-02-21T00:34:41.108Z,1007.39
2023-02-21T00:35:41.057Z,1007.44
2023-02-21T00:36:40.974Z,1007.35
2023-02-21T00:37:40.912Z,1007.38
2023-02-21T00:38:40.844Z,1007.36
2023-02-21T00:39:40.774Z,1007.44
2023-02-21T00:40:40.703Z,1007.39
2023-02-21T00:41:40.640Z,1007.35
2023-02-21T00:42:40.573Z,1007.43
2023-02-21T00:43:40.508Z,1007.33
2023-02-21T00:44:40.446Z,1007.35
2023-02-21T00:45:40.417Z,1007.37
2023-02-21T00:46:40.313Z,1007.34
2023-02-21T00:47:40.240Z,1007.34
2023-02-21T00:48:40.170Z,1007.42
2023-02-21T00:49:40.104Z,1007.32
2023-02-21T00:50:40.037Z,1007.38
2023-02-21T00:51:39.979Z,1007.33
2023-02-21T00:52:39.902Z,1007.33
2023-02-21T00:53:39.837Z,1007.30
2023-02-21T00:54:39.790Z,1007.42
2023-02-21T00:55:39.714Z,1007.32
2023-02-21T00:56:39.635Z,1007.34
2023-02-21T00:57:39.569Z,1007.38
2023-02-21T00:58:39.501Z,1007.33
2023-02-21T00:59:39.443Z,1007.28
2023-02-21T01:00:39.369Z,1007.33
2023-02-21T01:01:39.382Z,1007.32
2023-02-21T01:02:39.238Z,1007.32
2023-02-21T01:03:39.186Z,1007.30
2023-02-21T01:04:39.149Z,1007.29
2023-02-21T01:05:39.046Z,1007.27
2023-02-21T01:06:38.976Z,1007.26
2023-02-21T01:07:38.910Z,1007.24
2023-02-21T01:08:38.845Z,1007.21
2023-02-21T01:09:38.775Z,1007.22
2023-02-21T01:10:38.714Z,1007.20
2023-02-21T01:11:38.645Z,1007.20
2023-02-21T01:12:38.576Z,1007.22
2023-02-21T01:13:38.515Z,1007.18
2023-02-21T01:14:38.442Z,1007.18
2023-02-21T01:15:38.387Z,1007.15
2023-02-21T01:16:38.315Z,1007.13
2023-02-21T01:17:38.261Z,1007.07
2023-02-21T01:18:38.179Z,1007.03
2023-02-21T01:19:38.114Z,1007.08
2023-02-21T01:20:38.044Z,1007.12
2023-02-21T01:21:37.983Z,1007.03
2023-02-21T01:22:37.911Z,1007.08
2023-02-21T01:23:37.850Z,1007.04
2023-02-21T01:24:37.780Z,1007.06
2023-02-21T01:25:37.712Z,1007.06
2023-02-21T01:26:37.652Z,1007.04
2023-02-21T01:27:37.590Z,1007.01
2023-02-21T01:28:37.529Z,1007.04
2023-02-21T01:29:37.455Z,1007.01
2023-02-21T01:30:37.418Z,1006.98
2023-02-21T01:31:37.318Z,1007.09
2023-02-21T01:32:37.276Z,1007.02
2023-02-21T01:33:37.193Z,1006.93
2023-02-21T01:34:37.116Z,1006.95
2023-02-21T01:35:37.052Z,1006.96
2023-02-21T01:36:36.992Z,1006.88
2023-02-21T01:37:36.918Z,1006.88
2023-02-21T01:38:36.855Z,1006.89
2023-02-21T01:39:36.787Z,1006.88
2023-02-21T01:40:36.716Z,1006.86
2023-02-21T01:41:36.651Z,1007.04
2023-02-21T01:42:36.586Z,1006.80
2023-02-21T01:43:36.531Z,1006.87
2023-02-21T01:44:36.456Z,1006.86
2023-02-21T01:45:36.393Z,1006.91
2023-02-21T01:46:36.327Z,1006.88
2023-02-21T01:47:36.265Z,1006.86
2023-02-21T01:48:36.191Z,1006.89
2023-02-21T01:49:36.123Z,1006.90
2023-02-21T01:50:36.053Z,1006.87
2023-02-21T01:51:36.051Z,1006.94
2023-02-21T01:52:35.926Z,1006.88
2023-02-21T01:53:35.862Z,1006.87
2023-02-21T01:54:35.787Z,1006.88
2023-02-21T01:55:35.729Z,1006.87
2023-02-21T01:56:35.659Z,1006.86
2023-02-21T01:57:35.595Z,1006.93
2023-02-21T01:58:35.523Z,1006.75
2023-02-21T01:59:35.467Z,1006.77
2023-02-21T02:00:35.392Z,1006.82
2023-02-21T02:01:35.343Z,1006.70
2023-02-21T02:02:35.257Z,1006.81
2023-02-21T02:03:35.196Z,1006.86
2023-02-21T02:04:35.152Z,1006.78
2023-02-21T02:05:35.070Z,1006.73
2023-02-21T02:06:35.000Z,1006.91
2023-02-21T02:07:34.927Z,1006.76
2023-02-21T02:08:34.854Z,1006.85
2023-02-21T02:09:34.794Z,1006.78
2023-02-21T02:10:34.723Z,1006.79
2023-02-21T02:11:34.664Z,1006.77
2023-02-21T02:12:34.603Z,1006.82
2023-02-21T02:13:34.528Z,1006.82
2023-02-21T02:14:34.459Z,1006.79
2023-02-21T02:15:34.443Z,1006.91
2023-02-21T02:16:34.327Z,1006.89
2023-02-21T02:17:34.262Z,1006.79
2023-02-21T02:18:34.193Z,1006.69
2023-02-21T02:19:34.174Z,1006.78
2023-02-21T02:20:34.066Z,1006.86
2023-02-21T02:21:33.997Z,1006.83
2023-02-21T02:22:33.935Z,1006.81
2023-02-21T02:23:33.865Z,1006.90
2023-02-21T02:24:33.803Z,1006.79
2023-02-21T02:25:33.735Z,1006.79
2023-02-21T02:26:33.666Z,1006.90
2023-02-21T02:27:33.599Z,1006.79
2023-02-21T02:28:33.536Z,1006.72
2023-02-21T02:29:33.468Z,1006.72
2023-02-21T02:30:34.262Z,1006.75
2023-02-21T02:31:33.504Z,1006.78
2023-02-21T02:32:34.208Z,1006.70
2023-02-21T02:33:33.201Z,1006.54
2023-02-21T02:34:33.137Z,1006.61
2023-02-21T02:35:33.070Z,1006.66
2023-02-21T02:36:33.000Z,1006.58
2023-02-21T02:37:32.941Z,1006.57
2023-02-21T02:38:32.868Z,1006.46
2023-02-21T02:39:32.818Z,1006.58
2023-02-21T02:40:32.735Z,1006.70
2023-02-21T02:41:32.677Z,1006.57
2023-02-21T02:42:32.611Z,1006.61
2023-02-21T02:43:32.554Z,1006.49
2023-02-21T02:44:32.477Z,1006.59
2023-02-21T02:45:32.405Z,1006.51
2023-02-21T02:46:32.369Z,1006.54
2023-02-21T02:47:32.283Z,1006.56
2023-02-21T02:48:32.207Z,1006.75
2023-02-21T02:49:32.176Z,1006.44
2023-02-21T02:50:32.076Z,1006.51
2023-02-21T02:51:32.006Z,1006.52
2023-02-21T02:52:31.941Z,1006.47
2023-02-21T02:53:31.878Z,1006.54
2023-02-21T02:54:31.821Z,1006.51
2023-02-21T02:55:31.746Z,1006.48
2023-02-21T02:56:31.676Z,1006.47
2023-02-21T02:57:31.619Z,1006.47
2023-02-21T02:58:31.540Z,1006.41
2023-02-21T02:59:31.480Z,1006.51
2023-02-21T03:00:31.411Z,1006.47
2023-02-21T03:01:31.372Z,1006.46
2023-02-21T03:02:31.284Z,1006.44
2023-02-21T03:03:31.277Z,1006.63
2023-02-21T03:04:31.143Z,1006.50
2023-02-21T03:05:31.083Z,1006.43
2023-02-21T03:06:31.010Z,1006.61
2023-02-21T03:07:30.952Z,1006.53
2023-02-21T03:08:30.882Z,1006.58
2023-02-21T03:09:30.819Z,1006.56
2023-02-21T03:10:30.750Z,1006.53
2023-02-21T03:11:30.682Z,1006.47
2023-02-21T03:12:30.627Z,1006.52
2023-02-21T03:13:30.549Z,1006.52
2023-02-21T03:14:30.482Z,1006.52
2023-02-21T03:15:31.214Z,1006.57
2023-02-21T03:16:30.347Z,1006.51
2023-02-21T03:17:30.286Z,1006.55
2023-02-21T03:18:30.228Z,1006.55
2023-02-21T03:19:30.158Z,1006.53
2023-02-21T03:20:30.088Z,1006.61
2023-02-21T03:21:30.026Z,1006.48
2023-02-21T03:22:29.954Z,1006.50
2023-02-21T03:23:29.893Z,1006.60
2023-02-21T03:24:29.838Z,1006.50
2023-02-21T03:25:29.761Z,1006.48
2023-02-21T03:26:29.690Z,1006.46
2023-02-21T03:27:29.627Z,1006.62
2023-02-21T03:28:29.558Z,1006.57
2023-02-21T03:29:29.497Z,1006.50
2023-02-21T03:30:29.497Z,1006.53
2023-02-21T03:31:29.448Z,1006.64
2023-02-21T03:32:29.298Z,1006.67
2023-02-21T03:33:29.231Z,1006.62
2023-02-21T03:34:29.163Z,1006.54
2023-02-21T03:35:29.100Z,1006.68
2023-02-21T03:36:29.037Z,1006.52
2023-02-21T03:37:28.967Z,1006.55
2023-02-21T03:38:28.912Z,1006.65
2023-02-21T03:39:28.834Z,1006.50
2023-02-21T03:40:28.795Z,1006.60
2023-02-21T03:41:28.702Z,1006.57
2023-02-21T03:42:28.636Z,1006.57
2023-02-21T03:43:28.607Z,1006.66
2023-02-21T03:44:28.502Z,1006.66
2023-02-21T03:45:28.439Z,1006.56
2023-02-21T03:46:28.394Z,1006.60
2023-02-21T03:47:28.305Z,1006.67
2023-02-21T03:48:32.444Z,1006.58
2023-02-21T03:49:28.175Z,1006.59
2023-02-21T03:50:28.108Z,1006.64
2023-02-21T03:51:28.046Z,1006.52
2023-02-21T03:52:27.980Z,1006.73
2023-02-21T03:53:27.911Z,1006.59
2023-02-21T03:54:27.855Z,1006.61
2023-02-21T03:55:27.789Z,1006.62
2023-02-21T03:56:36.700Z,1006.64
2023-02-21T03:57:27.663Z,1006.66
2023-02-21T03:58:27.586Z,1006.63
2023-02-21T03:59:27.597Z,1006.61
2023-02-21T04:00:27.453Z,1006.72
2023-02-21T04:01:27.385Z,1006.75
2023-02-21T04:02:27.324Z,1006.77
2023-02-21T04:03:28.240Z,1006.70
2023-02-21T04:04:27.188Z,1006.78
2023-02-21T04:05:27.121Z,1006.79
2023-02-21T04:06:27.070Z,1006.78
2023-02-21T04:07:26.996Z,1006.78
2023-02-21T04:08:26.926Z,1006.76
2023-02-21T04:09:26.870Z,1006.76
2023-02-21T04:10:26.800Z,1006.80
2023-02-21T04:11:26.727Z,1006.66
2023-02-21T04:12:26.667Z,1006.85
2023-02-21T04:13:26.597Z,1006.71
2023-02-21T04:14:26.528Z,1006.82
2023-02-21T04:15:26.466Z,1006.87
2023-02-21T04:16:26.474Z,1006.79
2023-02-21T04:17:26.336Z,1006.73
2023-02-21T04:18:26.268Z,1006.92
2023-02-21T04:19:26.205Z,1006.85
2023-02-21T04:20:26.134Z,1006.97
2023-02-21T04:21:26.068Z,1006.94
2023-02-21T04:22:26.740Z,1006.94
2023-02-21T04:23:25.941Z,1006.91
2023-02-21T04:24:25.911Z,1006.98
2023-02-21T04:25:25.806Z,1006.98
2023-02-21T04:26:25.793Z,1007.00
2023-02-21T04:27:25.672Z,1007.02
2023-02-21T04:28:25.606Z,1007.04
2023-02-21T04:29:25.549Z,1007.03
2023-02-21T04:30:25.513Z,1007.05
2023-02-21T04:31:25.454Z,1007.03
2023-02-21T04:32:25.506Z,1007.07
2023-02-21T04:33:25.276Z,1007.03
2023-02-21T04:34:25.216Z,1007.03
2023-02-21T04:35:25.154Z,1006.91
2023-02-21T04:36:25.084Z,1007.00
2023-02-21T04:37:25.752Z,1007.02
2023-02-21T04:38:24.956Z,1006.93
2023-02-21T04:39:24.889Z,1007.03
2023-02-21T04:40:24.825Z,1006.96
2023-02-21T04:41:24.756Z,1006.99
2023-02-21T04:42:24.690Z,1006.97
2023-02-21T04:43:24.620Z,1007.03
2023-02-21T04:44:24.557Z,1006.97
2023-02-21T04:45:24.490Z,1006.95
2023-02-21T04:46:24.426Z,1006.99
2023-02-21T04:47:24.362Z,1006.92
2023-02-21T04:48:24.294Z,1006.95
2023-02-21T04:49:24.227Z,1006.99
2023-02-21T04:50:24.162Z,1006.94
2023-02-21T04:51:24.105Z,1006.97
2023-02-21T04:52:24.034Z,1006.92
2023-02-21T04:53:23.965Z,1007.06
2023-02-21T04:54:23.897Z,1006.89
2023-02-21T04:55:23.831Z,1007.04
2023-02-21T04:56:23.835Z,1007.04
2023-02-21T04:57:23.700Z,1007.08
2023-02-21T04:58:24.562Z,1007.06
2023-02-21T04:59:23.566Z,1007.04
2023-02-21T05:00:24.255Z,1007.06
2023-02-21T05:01:23.567Z,1007.04
2023-02-21T05:02:23.373Z,1007.06
2023-02-21T05:03:23.306Z,1007.04
2023-02-21T05:04:23.384Z,1007.07
2023-02-21T05:05:23.224Z,1007.06
2023-02-21T05:06:23.111Z,1007.06
2023-02-21T05:07:23.037Z,1006.93
2023-02-21T05:08:25.950Z,1007.05
2023-02-21T05:09:22.904Z,1007.09
2023-02-21T05:10:25.447Z,1006.93
2023-02-21T05:11:22.774Z,1006.99
2023-02-21T05:12:22.709Z,1006.94
2023-02-21T05:13:22.645Z,1007.06
2023-02-21T05:14:22.574Z,1007.04
2023-02-21T05:15:22.508Z,1007.06
2023-02-21T05:16:22.512Z,1007.06
2023-02-21T05:17:22.384Z,1007.04
2023-02-21T05:18:22.310Z,1006.99
2023-02-21T05:19:22.242Z,1007.01
2023-02-21T05:20:22.177Z,1007.06
2023-02-21T05:21:22.108Z,1007.02
2023-02-21T05:22:22.050Z,1007.08
2023-02-21T05:23:21.980Z,1007.12
2023-02-21T05:24:21.921Z,1007.11
2023-02-21T05:25:21.848Z,1006.95
2023-02-21T05:26:21.783Z,1007.00
2023-02-21T05:27:21.722Z,1007.01
2023-02-21T05:28:21.649Z,1007.04
2023-02-21T05:29:21.580Z,1007.03
2023-02-21T05:30:21.610Z,1006.94
2023-02-21T05:31:21.513Z,1006.97
2023-02-21T05:32:21.416Z,1006.95
2023-02-21T05:33:21.322Z,1007.01
2023-02-21T05:34:21.272Z,1007.08
2023-02-21T05:35:21.182Z,1007.02
2023-02-21T05:36:21.118Z,1007.10
2023-02-21T05:37:21.104Z,1007.04
2023-02-21T05:38:20.990Z,1007.12
2023-02-21T05:39:20.969Z,1007.09
2023-02-21T05:40:20.852Z,1007.05
2023-02-21T05:41:20.797Z,1007.12
2023-02-21T05:42:20.718Z,1007.15
2023-02-21T05:43:20.653Z,1007.14
2023-02-21T05:44:20.599Z,1007.11
2023-02-21T05:45:20.559Z,1007.12
2023-02-21T05:46:20.544Z,1007.18
2023-02-21T05:47:20.386Z,1007.08
2023-02-21T05:48:20.327Z,1007.15
2023-02-21T05:49:20.268Z,1007.27
2023-02-21T05:50:20.192Z,1007.09
2023-02-21T05:51:20.125Z,1007.19
2023-02-21T05:52:20.054Z,1007.25
2023-02-21T05:53:19.990Z,1007.16
2023-02-21T05:54:19.940Z,1007.25
2023-02-21T05:55:19.856Z,1007.23
2023-02-21T05:56:19.789Z,1007.32
2023-02-21T05:57:19.721Z,1007.23
2023-02-21T05:58:20.271Z,1007.27
2023-02-21T05:59:19.590Z,1007.31
2023-02-21T06:00:19.520Z,1007.24
2023-02-21T06:01:19.456Z,1007.30
2023-02-21T06:02:19.413Z,1007.37
2023-02-21T06:03:19.355Z,1007.37
2023-02-21T06:04:19.262Z,1007.38
2023-02-21T06:05:19.192Z,1007.44
2023-02-21T06:06:19.124Z,1007.43
2023-02-21T06:07:19.066Z,1007.50
2023-02-21T06:08:18.991Z,1007.55
2023-02-21T06:09:18.924Z,1007.50
2023-02-21T06:10:18.857Z,1007.55
2023-02-21T06:11:18.792Z,1007.53
2023-02-21T06:12:18.723Z,1007.63
2023-02-21T06:13:18.658Z,1007.59
2023-02-21T06:14:18.606Z,1007.59
2023-02-21T06:15:18.523Z,1007.64
2023-02-21T06:16:18.458Z,1007.66
2023-02-21T06:17:18.392Z,1007.62
2023-02-21T06:18:18.326Z,1007.62
2023-02-21T06:19:18.259Z,1007.65
2023-02-21T06:20:18.773Z,1007.64
2023-02-21T06:21:18.133Z,1007.60
2023-02-21T06:22:18.063Z,1007.70
2023-02-21T06:23:18.774Z,1007.60
2023-02-21T06:24:17.937Z,1007.65
2023-02-21T06:25:17.860Z,1007.68
2023-02-21T06:26:17.805Z,1007.71
2023-02-21T06:27:17.743Z,1007.73
2023-02-21T06:28:17.662Z,1007.80
2023-02-21T06:29:17.596Z,1007.75
2023-02-21T06:30:17.545Z,1007.82
2023-02-21T06:31:17.804Z,1007.86
2023-02-21T06:32:17.427Z,1007.80
2023-02-21T06:33:18.276Z,1007.92
2023-02-21T06:34:17.267Z,1007.85
2023-02-21T06:35:17.216Z,1007.88
2023-02-21T06:36:17.137Z,1007.81
2023-02-21T06:37:17.072Z,1007.87
2023-02-21T06:38:17.009Z,1007.88
2023-02-21T06:39:16.938Z,1007.90
2023-02-21T06:40:16.874Z,1007.90
2023-02-21T06:41:16.902Z,1007.90
2023-02-21T06:42:16.783Z,1007.94
2023-02-21T06:43:16.684Z,1007.97
2023-02-21T06:44:16.617Z,1007.92
2023-02-21T06:45:16.544Z,1007.97
2023-02-21T06:46:16.507Z,1007.94
2023-02-21T06:47:16.414Z,1007.92
2023-02-21T06:48:16.354Z,1007.98
2023-02-21T06:49:16.281Z,1007.97
2023-02-21T06:50:16.214Z,1008.01
2023-02-21T06:51:16.387Z,1008.06
2023-02-21T06:52:16.084Z,1008.10
2023-02-21T06:53:16.017Z,1008.13
2023-02-21T06:54:15.957Z,1008.18
2023-02-21T06:55:15.886Z,1008.15
2023-02-21T06:56:15.823Z,1008.10
2023-02-21T06:57:15.752Z,1008.06
2023-02-21T06:58:15.687Z,1008.18
2023-02-21T06:59:15.636Z,1008.20
2023-02-21T07:00:15.555Z,1008.16
2023-02-21T07:01:15.866Z,1008.23
2023-02-21T07:02:15.441Z,1008.21
2023-02-21T07:03:15.376Z,1008.26
2023-02-21T07:04:15.325Z,1008.27
2023-02-21T07:05:15.224Z,1008.21
2023-02-21T07:06:15.174Z,1008.28
2023-02-21T07:07:15.104Z,1008.30
2023-02-21T07:08:15.033Z,1008.35
2023-02-21T07:09:14.958Z,1008.39
2023-02-21T07:10:14.896Z,1008.39
2023-02-21T07:11:15.119Z,1008.39
2023-02-21T07:12:14.764Z,1008.42
2023-02-21T07:13:14.694Z,1008.44
2023-02-21T07:14:14.641Z,1008.48
2023-02-21T07:15:14.565Z,1008.48
2023-02-21T07:16:14.618Z,1008.52
2023-02-21T07:17:14.433Z,1008.48
2023-02-21T07:18:14.371Z,1008.53
2023-02-21T07:19:15.296Z,1008.51
2023-02-21T07:20:14.238Z,1008.56
2023-02-21T07:21:14.456Z,1008.56
2023-02-21T07:22:14.110Z,1008.60
2023-02-21T07:23:14.032Z,1008.65
2023-02-21T07:24:13.971Z,1008.61
2023-02-21T07:25:13.905Z,1008.67
2023-02-21T07:26:13.842Z,1008.72
2023-02-21T07:27:13.790Z,1008.71
2023-02-21T07:28:13.703Z,1008.76
2023-02-21T07:29:13.748Z,1008.78
2023-02-21T07:30:13.673Z,1008.79
2023-02-21T07:31:14.176Z,1008.76
2023-02-21T07:32:13.470Z,1008.78
2023-02-21T07:33:13.374Z,1008.83
2023-02-21T07:34:13.313Z,1008.83
2023-02-21T07:35:13.252Z,1008.79
2023-02-21T07:36:13.178Z,1008.85
2023-02-21T07:37:13.112Z,1008.81
2023-02-21T07:38:13.047Z,1008.85
2023-02-21T07:39:13.011Z,1008.81
2023-02-21T07:40:12.926Z,1008.75
2023-02-21T07:41:13.028Z,1008.85
2023-02-21T07:42:13.484Z,1008.77
2023-02-21T07:43:12.752Z,1008.77
2023-02-21T07:44:12.660Z,1008.76
2023-02-21T07:45:12.593Z,1008.75
2023-02-21T07:46:12.540Z,1008.74
2023-02-21T07:47:12.471Z,1008.73
2023-02-21T07:48:12.399Z,1008.76
2023-02-21T07:49:12.344Z,1008.78
2023-02-21T07:50:12.266Z,1008.75
2023-02-21T07:51:12.199Z,1008.76
2023-02-21T07:52:12.137Z,1008.81
2023-02-21T07:53:12.073Z,1008.82
2023-02-21T07:54:12.010Z,1008.82
2023-02-21T07:55:11.942Z,1008.80
2023-02-21T07:56:11.879Z,1008.81
2023-02-21T07:57:11.819Z,1008.85
2023-02-21T07:58:11.749Z,1008.87
2023-02-21T07:59:11.687Z,1008.82
2023-02-21T08:00:11.619Z,1008.93
2023-02-21T08:01:11.553Z,1008.91
2023-02-21T08:02:11.494Z,1008.84
2023-02-21T08:03:11.423Z,1008.86
2023-02-21T08:04:11.355Z,1008.98
2023-02-21T08:05:11.293Z,1008.91
2023-02-21T08:06:11.240Z,1009.04
2023-02-21T08:07:11.164Z,1009.03
2023-02-21T08:08:11.099Z,1009.07
2023-02-21T08:09:11.033Z,1009.07
2023-02-21T08:10:10.976Z,1009.08
2023-02-21T08:11:11.902Z,1009.14
2023-02-21T08:12:10.837Z,1009.07
2023-02-21T08:13:10.814Z,1009.18
2023-02-21T08:14:10.709Z,1009.17
2023-02-21T08:15:10.648Z,1009.20
2023-02-21T08:16:10.613Z,1009.17
2023-02-21T08:17:10.510Z,1009.21
2023-02-21T08:18:10.443Z,1009.29
2023-02-21T08:19:10.391Z,1009.09
2023-02-21T08:20:10.317Z,1009.25
2023-02-21T08:21:10.253Z,1009.11
2023-02-21T08:22:10.193Z,1009.16
2023-02-21T08:23:10.124Z,1009.14
2023-02-21T08:24:10.054Z,1009.19
2023-02-21T08:25:09.998Z,1009.23
2023-02-21T08:26:09.929Z,1009.15
2023-02-21T08:27:09.864Z,1009.21
2023-02-21T08:28:09.797Z,1009.27
2023-02-21T08:29:09.742Z,1009.25
2023-02-21T08:30:09.706Z,1009.26
2023-02-21T08:31:09.646Z,1009.28
2023-02-21T08:32:09.544Z,1009.23
2023-02-21T08:33:09.480Z,1009.24
2023-02-21T08:34:10.315Z,1009.21
2023-02-21T08:35:09.352Z,1009.28
2023-02-21T08:36:09.310Z,1009.26
2023-02-21T08:37:09.237Z,1009.28
2023-02-21T08:38:09.158Z,1009.32
2023-02-21T08:39:09.095Z,1009.35
2023-02-21T08:40:09.036Z,1009.28
2023-02-21T08:41:08.961Z,1009.31
2023-02-21T08:42:08.907Z,1009.38
2023-02-21T08:43:09.822Z,1009.36
2023-02-21T08:44:08.767Z,1009.35
2023-02-21T08:45:08.757Z,1009.42
2023-02-21T08:46:08.652Z,1009.37
2023-02-21T08:47:08.610Z,1009.36
2023-02-21T08:48:08.509Z,1009.39
2023-02-21T08:49:08.449Z,1009.34
2023-02-21T08:50:08.384Z,1009.42
2023-02-21T08:51:08.318Z,1009.44
2023-02-21T08:52:08.252Z,1009.45
2023-02-21T08:53:08.192Z,1009.44
2023-02-21T08:54:08.138Z,1009.44
2023-02-21T08:55:08.064Z,1009.40
2023-02-21T08:56:08.002Z,1009.36
2023-02-21T08:57:07.933Z,1009.45
2023-02-21T08:58:07.866Z,1009.47
2023-02-21T08:59:07.836Z,1009.46
2023-02-21T09:00:07.808Z,1009.48
2023-02-21T09:01:07.741Z,1009.45
2023-02-21T09:02:07.673Z,1009.45
2023-02-21T09:03:07.548Z,1009.47
2023-02-21T09:04:07.488Z,1009.49
2023-02-21T09:05:07.420Z,1009.49
2023-02-21T09:06:07.354Z,1009.44
2023-02-21T09:07:07.291Z,1009.40
2023-02-21T09:08:07.228Z,1009.38
2023-02-21T09:09:07.184Z,1009.36
2023-02-21T09:10:07.111Z,1009.49
2023-02-21T09:11:07.087Z,1009.38
2023-02-21T09:12:06.966Z,1009.40
2023-02-21T09:13:06.905Z,1009.39
2023-02-21T09:14:06.841Z,1009.44
2023-02-21T09:15:06.796Z,1009.45
2023-02-21T09:16:06.770Z,1009.46
2023-02-21T09:17:06.659Z,1009.53
2023-02-21T09:18:06.588Z,1009.58
2023-02-21T09:19:06.526Z,1009.53
2023-02-21T09:20:06.467Z,1009.55
2023-02-21T09:21:06.396Z,1009.65
2023-02-21T09:22:06.328Z,1009.57
2023-02-21T09:23:06.268Z,1009.60
2023-02-21T09:24:06.205Z,1009.53
2023-02-21T09:25:06.139Z,1009.51
2023-02-21T09:26:06.070Z,1009.66
2023-02-21T09:27:06.040Z,1009.64
2023-02-21T09:28:05.946Z,1009.62
2023-02-21T09:29:05.892Z,1009.62
2023-02-21T09:30:05.838Z,1009.62
2023-02-21T09:31:05.750Z,1009.63
2023-02-21T09:32:05.781Z,1009.66
2023-02-21T09:33:05.654Z,1009.66
2023-02-21T09:34:05.561Z,1009.71
2023-02-21T09:35:05.568Z,1009.62
2023-02-21T09:36:05.478Z,1009.70
2023-02-21T09:37:06.551Z,1009.70
2023-02-21T09:38:05.383Z,1009.63
2023-02-21T09:39:05.351Z,1009.75
2023-02-21T09:40:05.329Z,1009.56
2023-02-21T09:41:05.122Z,1009.76
2023-02-21T09:42:05.222Z,1009.73
2023-02-21T09:43:05.135Z,1009.71
2023-02-21T09:44:05.054Z,1009.75
2023-02-21T09:45:04.970Z,1009.76
2023-02-21T09:46:04.895Z,1009.79
2023-02-21T09:47:04.924Z,1009.70
2023-02-21T09:48:05.001Z,1009.76
2023-02-21T09:49:04.636Z,1009.70
2023-02-21T09:50:04.546Z,1009.63
2023-02-21T09:51:04.472Z,1009.77
2023-02-21T09:52:04.431Z,1009.84
2023-02-21T09:53:04.348Z,1009.83
2023-02-21T09:54:04.285Z,1009.83
2023-02-21T09:55:04.224Z,1009.87
2023-02-21T09:56:04.159Z,1009.94
2023-02-21T09:57:04.092Z,1009.95
2023-02-21T09:58:04.034Z,1009.91
2023-02-21T09:59:03.989Z,1009.89
2023-02-21T10:00:03.906Z,1010.02
2023-02-21T10:01:03.892Z,1010.03
2023-02-21T10:02:03.776Z,1009.98
2023-02-21T10:03:03.715Z,1009.95
2023-02-21T10:04:03.641Z,1010.00
2023-02-21T10:05:03.727Z,1009.98
2023-02-21T10:06:05.474Z,1009.94
2023-02-21T10:07:03.455Z,1010.00
2023-02-21T10:08:03.387Z,1009.83
2023-02-21T10:09:03.337Z,1009.90
2023-02-21T10:10:03.272Z,1009.95
2023-02-21T10:11:03.204Z,1010.04
2023-02-21T10:12:03.131Z,1009.95
2023-02-21T10:13:03.073Z,1009.91
2023-02-21T10:14:03.028Z,1009.91
2023-02-21T10:15:02.949Z,1009.94
2023-02-21T10:16:02.885Z,1009.99
2023-02-21T10:17:02.817Z,1010.03
2023-02-21T10:18:02.752Z,1010.00
2023-02-21T10:19:02.693Z,1009.96
2023-02-21T10:20:02.626Z,1010.05
2023-02-21T10:21:02.571Z,1010.03
2023-02-21T10:22:02.507Z,1010.10
2023-02-21T10:23:02.444Z,1010.08
2023-02-21T10:24:02.392Z,1010.03
2023-02-21T10:25:02.310Z,1010.19
2023-02-21T10:26:02.249Z,1010.14
2023-02-21T10:27:02.186Z,1010.10
2023-02-21T10:28:02.120Z,1010.06
2023-02-21T10:29:02.075Z,1010.12
2023-02-21T10:30:02.008Z,1010.14
2023-02-21T10:31:02.050Z,1010.21
2023-02-21T10:32:01.948Z,1010.28
2023-02-21T10:33:01.811Z,1010.23
2023-02-21T10:34:01.740Z,1010.06
2023-02-21T10:35:01.690Z,1010.17
2023-02-21T10:36:01.629Z,1010.14
2023-02-21T10:37:02.062Z,1010.20
2023-02-21T10:38:01.505Z,1010.24
2023-02-21T10:39:01.433Z,1010.35
2023-02-21T10:40:01.368Z,1010.19
2023-02-21T10:41:01.302Z,1010.23
2023-02-21T10:42:01.233Z,1010.21
2023-02-21T10:43:01.175Z,1010.21
2023-02-21T10:44:01.113Z,1010.32
2023-02-21T10:45:01.081Z,1010.31
2023-02-21T10:46:01.019Z,1010.28
2023-02-21T10:47:00.920Z,1010.33
2023-02-21T10:48:00.890Z,1010.33
2023-02-21T10:49:00.799Z,1010.37
2023-02-21T10:50:00.747Z,1010.32
2023-02-21T10:51:00.672Z,1010.38
2023-02-21T10:52:00.606Z,1010.24
2023-02-21T10:53:00.613Z,1010.30
2023-02-21T10:54:00.483Z,1010.29
2023-02-21T10:55:00.422Z,1010.37
2023-02-21T10:56:00.349Z,1010.27
2023-02-21T10:57:00.290Z,1010.38
2023-02-21T10:58:00.225Z,1010.35
2023-02-21T10:59:00.171Z,1010.44
2023-02-21T11:00:00.106Z,1010.32
2023-02-21T11:01:00.040Z,1010.38
2023-02-21T11:01:59.974Z,1010.34
2023-02-21T11:02:59.911Z,1010.32
2023-02-21T11:03:59.850Z,1010.33
2023-02-21T11:04:59.790Z,1010.30
2023-02-21T11:05:59.729Z,1010.29
2023-02-21T11:06:59.669Z,1010.19
2023-02-21T11:07:59.602Z,1010.26
2023-02-21T11:08:59.552Z,1010.36
2023-02-21T11:09:59.487Z,1010.19
2023-02-21T11:10:59.444Z,1010.28
2023-02-21T11:11:59.344Z,1010.26
2023-02-21T11:12:59.304Z,1010.18
2023-02-21T11:13:59.229Z,1010.28
2023-02-21T11:14:59.193Z,1010.25
2023-02-21T11:15:59.107Z,1010.38
2023-02-21T11:16:59.062Z,1010.32
2023-02-21T11:17:58.974Z,1010.25
2023-02-21T11:18:59.041Z,1010.21
2023-02-21T11:19:58.839Z,1010.26
2023-02-21T11:20:58.773Z,1010.14
2023-02-21T11:21:58.713Z,1010.23
2023-02-21T11:22:58.652Z,1010.32
2023-02-21T11:23:58.586Z,1010.18
2023-02-21T11:24:58.535Z,1010.17
2023-02-21T11:25:58.466Z,1010.29
2023-02-21T11:26:58.407Z,1010.29
2023-02-21T11:27:58.328Z,1010.23
2023-02-21T11:28:58.265Z,1010.39
2023-02-21T11:29:58.198Z,1010.29
2023-02-21T11:30:58.243Z,1010.26
2023-02-21T11:31:58.092Z,1010.20
2023-02-21T11:32:58.059Z,1010.34
2023-02-21T11:33:57.945Z,1010.20
2023-02-21T11:34:57.906Z,1010.24
2023-02-21T11:35:57.843Z,1010.06
2023-02-21T11:36:57.758Z,1010.19
2023-02-21T11:37:57.729Z,1010.13
2023-02-21T11:38:57.633Z,1010.23
2023-02-21T11:39:57.574Z,1009.99
2023-02-21T11:40:57.541Z,1010.15
2023-02-21T11:41:57.463Z,1010.23
2023-02-21T11:42:57.381Z,1010.13
2023-02-21T11:43:57.316Z,1010.25
2023-02-21T11:44:57.250Z,1010.23
2023-02-21T11:45:57.209Z,1010.17
2023-02-21T11:46:57.117Z,1010.24
2023-02-21T11:47:57.063Z,1010.25
2023-02-21T11:48:56.994Z,1010.24
2023-02-21T11:49:56.953Z,1010.17
2023-02-21T11:50:56.881Z,1010.27
2023-02-21T11:51:56.802Z,1010.23
2023-02-21T11:52:56.741Z,1010.24
2023-02-21T11:53:56.672Z,1010.19
2023-02-21T11:54:56.612Z,1010.22
2023-02-21T11:55:56.556Z,1010.34
2023-02-21T11:56:56.486Z,1010.27
2023-02-21T11:57:56.421Z,1010.27
2023-02-21T11:58:56.389Z,1010.33
2023-02-21T11:59:56.304Z,1010.33
2023-02-21T12:00:56.232Z,1010.37
2023-02-21T12:01:56.165Z,1010.12
2023-02-21T12:02:56.098Z,1010.32
2023-02-21T12:03:56.100Z,1010.34
2023-02-21T12:04:55.980Z,1010.23